createdAt,value
2019-04-14T00:00:38.357Z,2.56
2019-04-14T00:03:26.710Z,2.61
2019-04-14T00:06:04.847Z,2.58
2019-04-14T00:08:34.900Z,2.55
2019-04-14T00:11:06.076Z,2.56
2019-04-14T00:13:37.104Z,2.57
2019-04-14T00:16:07.436Z,1.72
2019-04-14T00:18:38.244Z,2.63
2019-04-14T00:21:08.729Z,2.68
2019-04-14T00:23:39.043Z,2.68
2019-04-14T00:26:26.964Z,2.71
2019-04-14T00:28:57.883Z,2.73
2019-04-14T00:31:28.712Z,2.72
2019-04-14T00:34:00.705Z,2.75
2019-04-14T00:36:44.505Z,2.74
2019-04-14T00:39:18.841Z,2.75
2019-04-14T00:41:53.909Z,2.79
2019-04-14T00:44:42.940Z,2.80
2019-04-14T00:47:31.252Z,2.59
2019-04-14T00:50:01.640Z,2.56
2019-04-14T00:52:31.861Z,2.56
2019-04-14T00:55:01.717Z,2.51
2019-04-14T00:57:31.619Z,2.43
2019-04-14T01:00:01.767Z,2.42
2019-04-14T01:02:31.859Z,2.39
2019-04-14T01:05:02.528Z,2.29
2019-04-14T01:07:32.752Z,2.30
2019-04-14T01:10:03.891Z,2.39
2019-04-14T01:12:34.212Z,2.44
2019-04-14T01:15:04.997Z,2.38
2019-04-14T01:17:35.962Z,2.34
2019-04-14T01:20:07.814Z,2.33
2019-04-14T01:22:38.136Z,2.27
2019-04-14T01:25:14.949Z,2.25
2019-04-14T01:27:49.556Z,2.22
2019-04-14T01:30:19.874Z,2.18
2019-04-14T01:32:50.127Z,1.67
2019-04-14T01:35:20.333Z,2.22
2019-04-14T01:37:50.739Z,2.22
2019-04-14T01:40:20.742Z,2.23
2019-04-14T01:42:50.662Z,2.26
2019-04-14T01:45:21.066Z,2.23
2019-04-14T01:47:51.133Z,2.23
2019-04-14T01:50:23.446Z,2.20
2019-04-14T01:52:58.914Z,2.22
2019-04-14T01:55:41.640Z,2.26
2019-04-14T01:58:17.145Z,2.30
2019-04-14T02:00:49.287Z,2.29
2019-04-14T02:03:19.477Z,2.28
2019-04-14T02:05:49.659Z,2.27
2019-04-14T02:08:19.866Z,2.24
2019-04-14T02:10:49.981Z,2.18
2019-04-14T02:13:20.336Z,2.17
2019-04-14T02:15:50.628Z,2.13
2019-04-14T02:18:20.865Z,2.16
2019-04-14T02:20:51.245Z,2.16
2019-04-14T02:23:23.532Z,2.17
2019-04-14T02:25:53.640Z,2.17
2019-04-14T02:28:24.251Z,2.13
2019-04-14T02:31:03.438Z,2.06
2019-04-14T02:33:50.567Z,2.07
2019-04-14T02:36:30.346Z,2.07
2019-04-14T02:44:08.040Z,1.95
2019-04-14T02:46:38.482Z,1.94
2019-04-14T02:49:08.295Z,1.90
2019-04-14T02:51:33.615Z,1.93
2019-04-14T02:54:11.829Z,2.00
2019-04-14T03:04:13.462Z,2.10
2019-04-14T03:06:50.376Z,2.02
2019-04-14T03:11:54.965Z,2.00
2019-04-14T03:14:23.412Z,2.01
2019-04-14T03:19:55.014Z,1.98
2019-04-14T03:22:44.514Z,1.92
2019-04-14T03:25:19.914Z,1.99
2019-04-14T03:27:58.956Z,2.06
2019-04-14T03:30:58.664Z,2.10
2019-04-14T03:38:12.836Z,2.03
2019-04-14T03:40:45.869Z,1.94
2019-04-14T03:45:59.296Z,1.95
2019-04-14T03:50:47.904Z,1.93
2019-04-14T03:53:21.419Z,1.93
2019-04-14T03:55:54.164Z,1.87
2019-04-14T03:58:18.533Z,1.42
2019-04-14T04:00:49.152Z,1.63
2019-04-14T04:03:19.617Z,1.66
2019-04-14T04:05:49.973Z,1.70
2019-04-14T04:08:20.170Z,1.76
2019-04-14T04:10:51.254Z,1.75
2019-04-14T04:13:21.595Z,1.76
2019-04-14T04:15:52.028Z,1.79
2019-04-14T04:18:24.125Z,1.03
2019-04-14T04:20:58.871Z,1.74
2019-04-14T04:23:36.463Z,1.77
2019-04-14T04:26:16.917Z,1.49
2019-04-14T04:28:49.434Z,1.84
2019-04-14T04:31:37.525Z,1.85
2019-04-14T04:34:09.788Z,1.91
2019-04-14T04:36:42.048Z,2.43
2019-04-14T04:39:30.135Z,3.15
2019-04-14T04:42:00.440Z,3.57
2019-04-14T04:44:31.335Z,3.82
2019-04-14T04:47:01.269Z,4.04
2019-04-14T04:49:32.472Z,4.27
2019-04-14T04:52:02.527Z,4.42
2019-04-14T04:54:32.364Z,4.33
2019-04-14T04:57:02.510Z,4.31
2019-04-14T04:59:32.343Z,4.26
2019-04-14T05:02:02.653Z,4.35
2019-04-14T05:04:32.936Z,3.90
2019-04-14T05:07:03.541Z,3.61
2019-04-14T05:09:38.860Z,3.39
2019-04-14T05:12:22.563Z,3.21
2019-04-14T05:15:03.730Z,2.91
2019-04-14T05:17:45.184Z,2.84
2019-04-14T05:20:15.953Z,2.70
2019-04-14T05:22:46.180Z,2.54
2019-04-14T05:25:16.730Z,2.57
2019-04-14T05:27:47.367Z,2.61
2019-04-14T05:30:17.573Z,2.51
2019-04-14T05:32:47.930Z,2.56
2019-04-14T05:35:18.423Z,2.58
2019-04-14T05:37:48.682Z,2.64
2019-04-14T05:40:18.877Z,1.78
2019-04-14T05:42:49.446Z,2.55
2019-04-14T05:45:19.849Z,2.60
2019-04-14T05:47:50.285Z,2.51
2019-04-14T05:50:20.367Z,2.51
2019-04-14T05:52:51.395Z,2.55
2019-04-14T05:55:22.023Z,2.58
2019-04-14T05:57:52.493Z,2.64
2019-04-14T06:00:23.491Z,2.62
2019-04-14T06:02:53.431Z,2.66
2019-04-14T06:05:23.336Z,2.75
2019-04-14T06:07:55.419Z,2.75
2019-04-14T06:10:24.617Z,2.62
2019-04-14T06:12:54.485Z,2.69
2019-04-14T06:15:24.290Z,2.74
2019-04-14T06:17:54.095Z,2.74
2019-04-14T06:20:24.009Z,3.04
2019-04-14T06:22:53.794Z,3.50
2019-04-14T06:25:23.588Z,3.31
2019-04-14T06:27:53.464Z,2.98
2019-04-14T06:30:24.820Z,2.80
2019-04-14T06:32:56.306Z,2.73
2019-04-14T06:35:39.657Z,2.81
2019-04-14T06:38:11.008Z,2.84
2019-04-14T06:40:45.352Z,2.93
2019-04-14T06:43:15.171Z,2.96
2019-04-14T06:45:44.951Z,2.93
2019-04-14T06:48:14.772Z,2.92
2019-04-14T06:50:46.455Z,2.91
2019-04-14T06:53:16.038Z,2.99
2019-04-14T06:55:45.890Z,3.01
2019-04-14T06:58:15.693Z,3.05
2019-04-14T07:00:45.488Z,3.12
2019-04-14T07:03:15.363Z,3.14
2019-04-14T07:05:45.190Z,3.17
2019-04-14T07:08:15.031Z,3.11
2019-04-14T07:10:44.852Z,3.12
2019-04-14T07:13:14.631Z,3.17
2019-04-14T07:15:44.434Z,3.14
2019-04-14T07:18:14.272Z,3.08
2019-04-14T07:20:44.044Z,3.14
2019-04-14T07:23:13.844Z,3.14
2019-04-14T07:25:43.952Z,3.12
2019-04-14T07:28:13.798Z,3.15
2019-04-14T07:30:45.199Z,2.98
2019-04-14T07:33:19.639Z,2.78
2019-04-14T07:35:57.090Z,2.94
2019-04-14T07:38:28.473Z,2.98
2019-04-14T07:41:14.927Z,3.10
2019-04-14T07:43:49.091Z,3.24
2019-04-14T07:46:29.090Z,3.34
2019-04-14T07:49:16.691Z,3.38
2019-04-14T07:51:56.993Z,3.45
2019-04-14T07:54:41.419Z,3.49
2019-04-14T07:57:29.292Z,3.54
2019-04-14T08:00:00.672Z,3.52
2019-04-14T08:02:32.012Z,3.51
2019-04-14T08:05:06.010Z,3.62
2019-04-14T08:07:35.795Z,3.65
2019-04-14T08:10:07.793Z,3.52
2019-04-14T08:12:37.619Z,3.55
2019-04-14T08:15:08.410Z,3.72
2019-04-14T08:17:38.191Z,3.82
2019-04-14T08:20:08.132Z,3.52
2019-04-14T08:22:37.932Z,3.68
2019-04-14T08:25:07.833Z,3.74
2019-04-14T08:27:38.930Z,3.69
2019-04-14T08:30:09.016Z,3.78
2019-04-14T08:32:38.779Z,3.69
2019-04-14T08:35:09.051Z,3.77
2019-04-14T08:37:38.852Z,3.70
2019-04-14T08:40:08.630Z,3.72
2019-04-14T08:42:42.790Z,3.84
2019-04-14T08:45:14.150Z,3.79
2019-04-14T08:48:01.735Z,4.03
2019-04-14T08:50:39.846Z,4.28
2019-04-14T08:53:19.152Z,4.33
2019-04-14T08:56:06.904Z,4.53
2019-04-14T08:58:44.490Z,4.47
2019-04-14T09:01:24.944Z,4.32
2019-04-14T09:04:14.911Z,4.49
2019-04-14T09:06:47.171Z,4.79
2019-04-14T09:09:18.891Z,5.01
2019-04-14T09:11:59.622Z,5.18
2019-04-14T09:14:30.370Z,5.19
2019-04-14T09:17:00.131Z,5.27
2019-04-14T09:19:29.932Z,5.26
2019-04-14T09:21:59.781Z,5.15
2019-04-14T09:24:29.547Z,5.12
2019-04-14T09:26:59.386Z,5.15
2019-04-14T09:29:30.052Z,5.12
2019-04-14T09:32:00.331Z,4.97
2019-04-14T09:34:30.142Z,5.01
2019-04-14T09:36:59.962Z,4.97
2019-04-14T09:39:29.723Z,4.99
2019-04-14T09:41:59.585Z,5.01
2019-04-14T09:44:29.374Z,4.54
2019-04-14T09:47:01.835Z,4.89
2019-04-14T09:49:31.659Z,4.61
2019-04-14T09:52:02.952Z,5.01
2019-04-14T09:54:33.874Z,5.02
2019-04-14T09:57:03.666Z,4.94
2019-04-14T09:59:33.459Z,4.97
2019-04-14T10:02:03.219Z,4.98
2019-04-14T10:04:33.044Z,5.03
2019-04-14T10:07:02.823Z,5.02
2019-04-14T10:09:32.663Z,5.09
2019-04-14T10:12:02.508Z,5.25
2019-04-14T10:14:32.264Z,5.20
2019-04-14T10:17:01.942Z,4.86
2019-04-14T10:19:32.204Z,4.81
2019-04-14T10:22:02.043Z,4.76
2019-04-14T10:24:33.386Z,4.61
2019-04-14T10:27:03.189Z,4.66
2019-04-14T10:29:33.015Z,4.82
2019-04-14T10:32:02.766Z,4.92
2019-04-14T10:34:32.563Z,4.88
2019-04-14T10:37:02.329Z,4.91
2019-04-14T10:39:32.083Z,4.86
2019-04-14T10:42:01.864Z,4.71
2019-04-14T10:44:31.642Z,4.80
2019-04-14T10:47:02.502Z,5.01
2019-04-14T10:49:32.644Z,5.10
2019-04-14T10:52:04.815Z,5.27
2019-04-14T10:54:34.554Z,5.38
2019-04-14T10:57:04.933Z,5.24
2019-04-14T10:59:34.838Z,5.26
2019-04-14T11:02:04.633Z,5.24
2019-04-14T11:04:34.481Z,5.30
2019-04-14T11:07:06.383Z,5.31
2019-04-14T11:09:36.872Z,5.34
2019-04-14T11:12:06.810Z,5.29
2019-04-14T11:14:37.855Z,5.38
2019-04-14T11:17:07.741Z,5.33
2019-04-14T11:19:40.612Z,5.22
2019-04-14T11:22:10.825Z,5.18
2019-04-14T11:24:40.909Z,4.87
2019-04-14T11:27:10.731Z,5.03
2019-04-14T11:29:40.532Z,5.09
2019-04-14T11:32:28.412Z,4.89
2019-04-14T11:35:00.796Z,4.97
2019-04-14T11:37:32.571Z,4.67
2019-04-14T11:40:02.912Z,4.66
2019-04-14T11:42:34.949Z,4.83
2019-04-14T11:45:06.469Z,4.67
2019-04-14T11:47:36.356Z,4.70
2019-04-14T11:50:07.286Z,4.63
2019-04-14T11:52:37.090Z,4.72
2019-04-14T11:55:07.290Z,4.86
2019-04-14T11:57:37.958Z,4.72
2019-04-14T12:00:26.578Z,4.58
2019-04-14T12:02:58.798Z,4.69
2019-04-14T12:05:30.126Z,4.67
2019-04-14T12:08:10.828Z,4.83
2019-04-14T12:10:40.626Z,4.98
2019-04-14T12:13:10.446Z,5.11
2019-04-14T12:15:40.258Z,5.09
2019-04-14T12:18:09.904Z,5.13
2019-04-14T12:20:40.575Z,5.09
2019-04-14T12:23:10.689Z,5.07
2019-04-14T12:25:40.549Z,5.12
2019-04-14T12:28:11.369Z,5.13
2019-04-14T12:30:41.996Z,5.21
2019-04-14T12:33:12.022Z,5.20
2019-04-14T12:35:41.834Z,5.30
2019-04-14T12:38:11.639Z,5.23
2019-04-14T12:40:42.535Z,4.99
2019-04-14T12:43:26.278Z,5.19
2019-04-14T12:46:07.044Z,5.34
2019-04-14T12:48:38.432Z,5.31
2019-04-14T12:51:16.793Z,4.95
2019-04-14T12:53:46.872Z,4.72
2019-04-14T12:56:18.341Z,4.69
2019-04-14T12:59:01.378Z,4.64
2019-04-14T13:01:38.896Z,4.71
2019-04-14T13:04:08.802Z,4.71
2019-04-14T13:06:38.634Z,4.86
2019-04-14T13:09:09.136Z,4.81
2019-04-14T13:11:39.426Z,4.80
2019-04-14T13:14:09.395Z,4.97
2019-04-14T13:16:39.958Z,4.90
2019-04-14T13:19:09.767Z,4.74
2019-04-14T13:21:40.701Z,4.61
2019-04-14T13:24:11.561Z,4.42
2019-04-14T13:26:41.462Z,4.34
2019-04-14T13:29:11.225Z,4.42
2019-04-14T13:31:41.024Z,4.54
2019-04-14T13:34:11.496Z,4.64
2019-04-14T13:36:41.798Z,4.69
2019-04-14T13:39:12.870Z,4.72
2019-04-14T13:41:43.507Z,4.76
2019-04-14T13:44:17.034Z,4.64
2019-04-14T13:46:47.916Z,4.61
2019-04-14T13:49:17.754Z,4.63
2019-04-14T13:51:47.494Z,4.70
2019-04-14T13:54:17.937Z,4.76
2019-04-14T13:56:51.415Z,4.73
2019-04-14T13:59:22.165Z,4.71
2019-04-14T14:01:52.069Z,4.74
2019-04-14T14:04:21.801Z,4.75
2019-04-14T14:06:53.033Z,4.69
2019-04-14T14:09:25.655Z,4.65
2019-04-14T14:11:58.386Z,4.60
2019-04-14T14:14:40.113Z,4.58
2019-04-14T14:17:15.310Z,4.50
2019-04-14T14:19:49.733Z,4.51
2019-04-14T14:22:30.537Z,4.40
2019-04-14T14:25:07.713Z,4.43
2019-04-14T14:27:37.491Z,4.43
2019-04-14T14:30:08.653Z,4.41
2019-04-14T14:32:38.549Z,4.49
2019-04-14T14:35:08.405Z,4.59
2019-04-14T14:37:38.224Z,4.64
2019-04-14T14:40:12.960Z,4.73
2019-04-14T14:42:42.873Z,4.73
2019-04-14T14:45:32.837Z,4.70
2019-04-14T14:48:14.376Z,4.69
2019-04-14T14:50:48.199Z,4.53
2019-04-14T14:53:22.499Z,4.52
2019-04-14T14:55:54.771Z,5.38
2019-04-14T14:58:25.647Z,5.40
2019-04-14T15:00:57.011Z,5.24
2019-04-14T15:03:27.992Z,5.09
2019-04-14T15:05:58.972Z,4.81
2019-04-14T15:08:29.933Z,4.73
2019-04-14T15:11:04.207Z,4.77
2019-04-14T15:13:37.343Z,4.85
2019-04-14T15:16:08.202Z,4.92
2019-04-14T15:18:46.832Z,4.97
2019-04-14T15:21:19.150Z,5.18
2019-04-14T15:23:50.050Z,5.13
2019-04-14T15:26:20.267Z,5.09
2019-04-14T15:28:50.136Z,5.02
2019-04-14T15:31:20.089Z,5.13
2019-04-14T15:33:49.871Z,5.13
2019-04-14T15:36:20.028Z,4.96
2019-04-14T15:38:50.053Z,4.88
2019-04-14T15:41:20.758Z,4.84
2019-04-14T15:43:50.822Z,4.74
2019-04-14T15:46:21.785Z,4.64
2019-04-14T15:48:51.675Z,4.45
2019-04-14T15:51:21.489Z,4.40
2019-04-14T15:53:51.380Z,4.31
2019-04-14T15:56:34.920Z,4.32
2019-04-14T15:59:06.417Z,4.28
2019-04-14T16:01:51.946Z,4.19
2019-04-14T16:04:24.514Z,4.10
2019-04-14T16:07:01.615Z,4.12
2019-04-14T16:09:35.995Z,4.14
2019-04-14T16:12:19.796Z,4.14
2019-04-14T16:15:09.561Z,4.17
2019-04-14T16:17:47.155Z,4.39
2019-04-14T16:20:20.069Z,4.40
2019-04-14T16:22:51.455Z,4.34
2019-04-14T16:25:22.854Z,4.21
2019-04-14T16:27:54.299Z,4.09
2019-04-14T16:30:36.036Z,3.93
2019-04-14T16:33:22.527Z,3.98
2019-04-14T16:35:53.528Z,4.00
2019-04-14T16:38:25.363Z,4.05
2019-04-14T16:40:56.304Z,4.05
2019-04-14T16:43:26.654Z,4.10
2019-04-14T16:46:05.378Z,4.76
2019-04-14T16:48:36.624Z,4.84
2019-04-14T16:51:12.869Z,4.58
2019-04-14T16:53:45.960Z,4.50
2019-04-14T16:56:20.787Z,4.24
2019-04-14T16:58:55.305Z,4.12
2019-04-14T17:01:27.704Z,4.10
2019-04-14T17:03:58.028Z,4.13
2019-04-14T17:06:29.047Z,4.10
2019-04-14T17:08:58.929Z,4.08
2019-04-14T17:11:29.335Z,4.00
2019-04-14T17:14:01.042Z,3.99
2019-04-14T17:16:34.668Z,3.91
2019-04-14T17:19:08.567Z,3.89
2019-04-14T17:21:44.253Z,3.81
2019-04-14T17:24:26.184Z,3.82
2019-04-14T17:26:59.967Z,3.79
2019-04-14T17:29:43.549Z,3.81
2019-04-14T17:32:24.324Z,3.80
2019-04-14T17:35:11.044Z,3.80
2019-04-14T17:37:42.514Z,3.82
2019-04-14T17:40:14.704Z,3.79
2019-04-14T17:42:54.040Z,3.80
2019-04-14T17:45:36.746Z,3.77
2019-04-14T17:48:11.395Z,3.81
2019-04-14T17:50:47.545Z,3.80
2019-04-14T17:53:37.154Z,4.21
2019-04-14T17:56:11.593Z,5.31
2019-04-14T17:58:56.194Z,5.10
2019-04-14T18:01:33.725Z,4.87
2019-04-14T18:04:05.664Z,4.57
2019-04-14T18:06:37.114Z,4.34
2019-04-14T18:09:12.904Z,4.14
2019-04-14T18:11:49.126Z,4.08
2019-04-14T18:14:27.586Z,4.07
2019-04-14T18:16:58.994Z,4.04
2019-04-14T18:19:31.441Z,3.97
2019-04-14T18:22:01.436Z,3.94
2019-04-14T18:24:41.597Z,3.89
2019-04-14T18:27:03.183Z,3.83
2019-04-14T18:29:50.757Z,3.84
2019-04-14T18:32:28.947Z,3.85
2019-04-14T18:35:13.855Z,3.83
2019-04-14T18:37:55.111Z,3.82
2019-04-14T18:40:26.563Z,3.84
2019-04-14T18:43:14.905Z,3.88
2019-04-14T18:45:50.795Z,3.90
2019-04-14T18:48:22.108Z,3.75
2019-04-14T18:51:09.745Z,3.69
2019-04-14T18:53:41.222Z,3.69
2019-04-14T18:56:23.484Z,3.66
2019-04-14T18:59:13.482Z,3.69
2019-04-14T19:01:45.789Z,3.74
2019-04-14T19:04:19.549Z,3.72
2019-04-14T19:06:52.917Z,3.72
2019-04-14T19:09:23.869Z,3.59
2019-04-14T19:12:00.043Z,3.61
2019-04-14T19:14:32.456Z,3.62
2019-04-14T19:17:09.022Z,3.56
2019-04-14T19:19:40.463Z,3.86
2019-04-14T19:22:14.603Z,3.83
2019-04-14T19:24:44.988Z,3.70
2019-04-14T19:27:15.810Z,3.66
2019-04-14T19:29:46.099Z,3.58
2019-04-14T19:32:23.333Z,3.56
2019-04-14T19:34:53.210Z,3.68
2019-04-14T19:37:23.408Z,3.62
2019-04-14T19:39:55.968Z,3.69
2019-04-14T19:42:27.081Z,3.47
2019-04-14T19:44:59.083Z,3.41
2019-04-14T19:47:28.961Z,3.43
2019-04-14T19:49:58.806Z,2.69
2019-04-14T19:52:30.009Z,3.49
2019-04-14T19:55:00.888Z,3.50
2019-04-14T19:57:31.198Z,3.50
2019-04-14T20:02:55.467Z,3.54
2019-04-14T20:08:14.980Z,3.62
2019-04-14T20:10:46.889Z,3.56
2019-04-14T20:13:17.329Z,3.35
2019-04-14T20:16:05.070Z,3.34
2019-04-14T20:18:42.450Z,3.37
2019-04-14T20:21:23.169Z,3.38
2019-04-14T20:24:03.548Z,3.43
2019-04-14T20:26:51.308Z,3.47
2019-04-14T20:29:25.628Z,3.51
2019-04-14T20:31:57.069Z,3.55
2019-04-14T20:34:27.248Z,3.56
2019-04-14T20:36:56.870Z,3.55
2019-04-14T20:39:27.988Z,3.55
2019-04-14T20:41:57.701Z,3.54
2019-04-14T20:44:27.490Z,3.49
2019-04-14T20:46:57.295Z,3.50
2019-04-14T20:49:27.112Z,3.34
2019-04-14T20:51:59.378Z,3.28
2019-04-14T20:54:29.250Z,3.18
2019-04-14T20:56:59.099Z,3.25
2019-04-14T20:59:29.008Z,3.30
2019-04-14T21:02:17.589Z,3.34
2019-04-14T21:05:00.935Z,3.37
2019-04-14T21:07:38.194Z,3.36
2019-04-14T21:10:09.634Z,3.42
2019-04-14T21:12:53.033Z,3.49
2019-04-14T21:15:30.144Z,3.70
2019-04-14T21:18:01.553Z,3.56
2019-04-14T21:20:32.928Z,3.42
2019-04-14T21:23:13.610Z,3.30
2019-04-14T21:26:01.473Z,3.13
2019-04-14T21:28:39.063Z,3.06
2019-04-14T21:31:22.496Z,3.03
2019-04-14T21:33:56.440Z,2.99
2019-04-14T21:36:36.515Z,3.00
2019-04-14T21:39:17.984Z,2.97
2019-04-14T21:41:53.887Z,3.03
2019-04-14T21:44:23.651Z,2.97
2019-04-14T21:46:53.427Z,2.12
2019-04-14T21:49:23.224Z,3.01
2019-04-14T21:52:00.098Z,3.01
2019-04-14T21:54:29.884Z,2.98
2019-04-14T21:57:07.140Z,2.90
2019-04-14T21:59:56.699Z,2.91
2019-04-14T22:02:44.572Z,2.63
2019-04-14T22:05:32.133Z,2.57
2019-04-14T22:08:07.345Z,2.57
2019-04-14T22:10:41.758Z,2.63
2019-04-14T22:13:11.580Z,2.65
2019-04-14T22:15:41.313Z,2.58
2019-04-14T22:18:11.115Z,2.59
2019-04-14T22:20:40.848Z,2.65
2019-04-14T22:23:12.068Z,2.61
2019-04-14T22:25:41.862Z,2.21
2019-04-14T22:28:11.649Z,2.59
2019-04-14T22:30:42.875Z,2.65
2019-04-14T22:33:15.456Z,2.68
2019-04-14T22:35:45.252Z,2.75
2019-04-14T22:38:15.853Z,2.77
2019-04-14T22:40:45.488Z,2.79
2019-04-14T22:43:15.266Z,2.79
2019-04-14T22:45:45.039Z,2.80
2019-04-14T22:48:15.686Z,2.82
2019-04-14T22:50:45.422Z,2.82
2019-04-14T22:53:15.167Z,2.85
2019-04-14T22:55:45.142Z,2.85
2019-04-14T22:58:15.754Z,2.87
2019-04-14T23:00:49.982Z,2.88
2019-04-14T23:03:21.368Z,2.92
2019-04-14T23:05:52.690Z,2.93
2019-04-14T23:08:39.165Z,2.93
2019-04-14T23:11:16.590Z,2.93
2019-04-14T23:13:51.106Z,2.95
2019-04-14T23:16:23.501Z,2.94
2019-04-14T23:19:07.190Z,2.95
2019-04-14T23:21:38.518Z,2.95
2019-04-14T23:24:15.898Z,2.89
2019-04-14T23:26:52.549Z,2.87
2019-04-14T23:29:17.108Z,2.91
2019-04-14T23:31:46.912Z,2.88
2019-04-14T23:34:16.666Z,2.94
2019-04-14T23:36:46.439Z,2.93
2019-04-14T23:39:16.245Z,2.90
2019-04-14T23:41:46.003Z,2.78
2019-04-14T23:44:15.746Z,2.74
2019-04-14T23:46:45.606Z,2.76
2019-04-14T23:49:19.552Z,2.78
2019-04-14T23:51:49.291Z,2.76
2019-04-14T23:54:19.127Z,2.82
2019-04-14T23:56:48.871Z,2.87
2019-04-14T23:59:18.625Z,2.82
